Time;durP1;ratioP1;P1;durP2;ratioP2;P2;SDS_P1;SDS_P2;PMS_P1;PMS_P2;Temp;Humidity;BMP_temperature;BMP_pressure;BME280_temperature;BME280_humidity;BME280_pressure;Samples;Min_cycle;Max_cycle;Signal;HPM_P1;HPM_P2
2021/05/22 00:02:11;;;;;;;1.17;1.10;;;7.60;99.90;;;;;;4698740;30;20505;-83
2021/05/22 00:04:40;;;;;;;0.73;0.73;;;7.60;99.90;;;;;;4699776;30;20045;-83
2021/05/22 00:07:10;;;;;;;1.33;0.90;;;7.50;99.90;;;;;;4670343;30;20049;-83
2021/05/22 00:09:45;;;;;;;0.50;0.50;;;7.50;99.90;;;;;;4701247;30;20392;-83
2021/05/22 00:12:30;;;;;;;0.63;0.63;;;7.40;99.90;;;;;;4670967;30;20069;-84
2021/05/22 00:15:05;;;;;;;1.88;0.80;;;7.40;99.90;;;;;;4685314;30;20492;-83
2021/05/22 00:18:00;;;;;;;0.60;0.60;;;7.40;99.90;;;;;;4698030;30;20483;-85
2021/05/22 00:21:01;;;;;;;1.00;0.60;;;7.30;99.90;;;;;;4678084;30;20050;-83
2021/05/22 00:23:31;;;;;;;1.08;1.00;;;7.20;99.90;;;;;;4692674;30;20058;-84
2021/05/22 00:26:26;;;;;;;0.82;0.82;;;7.10;99.90;;;;;;4665658;30;20050;-83
2021/05/22 00:29:09;;;;;;;0.60;0.60;;;7.10;99.90;;;;;;4665498;30;20050;-84
2021/05/22 00:31:41;;;;;;;0.50;0.50;;;7.10;99.90;;;;;;4676145;30;20046;-84
2021/05/22 00:34:43;;;;;;;0.57;0.57;;;7.00;99.90;;;;;;4631123;30;20051;-83
2021/05/22 00:37:11;;;;;;;0.90;0.55;;;7.00;99.90;;;;;;4646072;30;20061;-83
2021/05/22 00:39:41;;;;;;;0.70;0.70;;;7.00;99.90;;;;;;4643919;30;20066;-83
2021/05/22 00:42:09;;;;;;;0.93;0.60;;;6.90;99.90;;;;;;4631414;30;20541;-83
2021/05/22 00:45:47;;;;;;;;;;;;;;;;;;;;;
2021/05/22 00:57:26;;;;;;;3.85;0.82;;;6.90;99.90;;;;;;4580231;31;20083;-81
2021/05/22 00:59:57;;;;;;;0.50;0.50;;;6.80;99.90;;;;;;4659945;30;20062;-84
2021/05/22 01:04:01;;;;;;;0.63;0.60;;;6.80;99.90;;;;;;4625837;30;20066;-84
2021/05/22 01:11:41;;;;;;;1.75;0.60;;;6.80;99.90;;;;;;4628462;30;20054;-84
2021/05/22 01:15:23;;;;;;;1.48;0.93;;;6.70;99.90;;;;;;4633477;30;20073;-83
2021/05/22 01:18:58;;;;;;;2.15;0.70;;;6.70;99.90;;;;;;4611636;30;20060;-82
2021/05/22 01:22:16;;;;;;;1.05;0.88;;;6.70;99.90;;;;;;4646848;30;20054;-83
2021/05/22 01:25:20;;;;;;;0.60;0.60;;;6.70;99.90;;;;;;4653139;30;20416;-82
2021/05/22 01:28:10;;;;;;;2.33;0.55;;;6.70;99.90;;;;;;4666526;30;20069;-82
2021/05/22 01:30:49;;;;;;;1.20;0.50;;;6.60;99.90;;;;;;4646015;30;20058;-82
2021/05/22 01:33:22;;;;;;;0.50;0.50;;;6.60;99.90;;;;;;4652992;30;20053;-84
2021/05/22 01:36:12;;;;;;;0.55;0.55;;;6.60;99.90;;;;;;4695742;30;20544;-84
2021/05/22 01:38:44;;;;;;;0.57;0.57;;;6.60;99.90;;;;;;4647924;30;20210;-82
2021/05/22 01:41:14;;;;;;;0.63;0.63;;;6.60;99.90;;;;;;4657901;30;20492;-82
2021/05/22 01:43:47;;;;;;;0.98;0.88;;;6.60;99.90;;;;;;4644899;30;20063;-82
2021/05/22 01:46:25;;;;;;;2.05;0.80;;;6.50;99.90;;;;;;4657680;30;20050;-84
2021/05/22 01:49:00;;;;;;;0.90;0.70;;;6.50;99.90;;;;;;4657742;30;20060;-85
2021/05/22 01:51:46;;;;;;;0.85;0.80;;;6.50;99.90;;;;;;4658705;30;20062;-85
2021/05/22 01:54:15;;;;;;;1.00;0.52;;;6.50;99.90;;;;;;4632847;30;20054;-83
2021/05/22 01:56:48;;;;;;;0.60;0.60;;;6.50;99.90;;;;;;4663243;30;20054;-83
2021/05/22 01:59:19;;;;;;;0.93;0.90;;;6.50;99.90;;;;;;4658544;30;20066;-85
2021/05/22 02:01:53;;;;;;;0.68;0.68;;;6.50;99.90;;;;;;4659165;30;20064;-85
2021/05/22 02:04:28;;;;;;;0.47;0.47;;;6.60;99.90;;;;;;4681484;30;20053;-86
2021/05/22 02:06:59;;;;;;;0.68;0.68;;;6.50;99.90;;;;;;4682226;30;20381;-85
2021/05/22 02:09:30;;;;;;;1.00;0.60;;;6.50;99.90;;;;;;4678708;30;20054;-82
2021/05/22 02:11:58;;;;;;;1.40;1.35;;;6.50;99.90;;;;;;4697066;30;20644;-85
2021/05/22 02:14:33;;;;;;;0.50;0.50;;;6.40;99.90;;;;;;4682859;30;20058;-86
2021/05/22 02:17:06;;;;;;;0.73;0.73;;;6.40;99.90;;;;;;4682457;30;20424;-86
2021/05/22 02:19:41;;;;;;;0.45;0.45;;;6.40;99.90;;;;;;4697179;30;20519;-85
2021/05/22 02:22:18;;;;;;;0.68;0.65;;;6.40;99.90;;;;;;4696776;30;20061;-81
2021/05/22 02:24:56;;;;;;;6.70;0.90;;;6.40;99.90;;;;;;4688866;30;20049;-85
2021/05/22 02:27:27;;;;;;;0.80;0.70;;;6.30;99.90;;;;;;4697384;30;20054;-85
2021/05/22 02:29:56;;;;;;;0.60;0.60;;;6.30;99.90;;;;;;4682633;30;20503;-85
2021/05/22 02:32:24;;;;;;;0.60;0.60;;;6.30;99.90;;;;;;4698611;30;20057;-85
2021/05/22 02:34:57;;;;;;;1.45;0.68;;;6.30;99.90;;;;;;4669085;30;20521;-84
2021/05/22 02:37:31;;;;;;;0.80;0.70;;;6.30;99.90;;;;;;4710827;30;20406;-85
2021/05/22 02:40:16;;;;;;;0.52;0.50;;;6.30;99.90;;;;;;4667941;30;20061;-81
2021/05/22 02:42:54;;;;;;;0.55;0.55;;;6.30;99.90;;;;;;4682381;30;20057;-82
2021/05/22 02:45:25;;;;;;;0.55;0.55;;;6.30;99.90;;;;;;4697020;30;20064;-83
2021/05/22 02:47:56;;;;;;;0.50;0.50;;;6.30;99.90;;;;;;4694611;30;20057;-84
2021/05/22 02:50:25;;;;;;;0.52;0.52;;;6.20;99.90;;;;;;4682403;30;20050;-84
2021/05/22 02:52:54;;;;;;;0.63;0.63;;;6.30;99.90;;;;;;4680623;30;20504;-84
2021/05/22 02:55:23;;;;;;;1.02;0.50;;;6.30;99.90;;;;;;4683141;30;20084;-84
2021/05/22 02:57:52;;;;;;;0.50;0.50;;;6.20;99.90;;;;;;4681777;30;20069;-83
2021/05/22 03:00:21;;;;;;;0.50;0.50;;;6.30;99.90;;;;;;4688588;30;20493;-86
2021/05/22 03:02:50;;;;;;;0.50;0.50;;;6.20;99.90;;;;;;4697369;30;20405;-85
2021/05/22 03:05:40;;;;;;;0.80;0.80;;;6.20;99.90;;;;;;4683307;30;20053;-86
2021/05/22 03:08:40;;;;;;;1.08;0.80;;;6.20;99.90;;;;;;4670757;30;20434;-86
2021/05/22 03:11:17;;;;;;;0.50;0.50;;;6.20;99.90;;;;;;4682278;30;20058;-85
2021/05/22 03:13:57;;;;;;;0.60;0.60;;;6.20;99.90;;;;;;4689268;30;20045;-85
2021/05/22 03:16:35;;;;;;;0.50;0.50;;;6.20;99.90;;;;;;4671188;30;20053;-86
2021/05/22 03:19:11;;;;;;;0.55;0.50;;;6.20;99.90;;;;;;4669577;30;20053;-84
2021/05/22 03:21:39;;;;;;;2.05;1.02;;;6.30;99.90;;;;;;4689569;30;20528;-84
2021/05/22 03:24:07;;;;;;;0.40;0.40;;;6.30;99.90;;;;;;4699345;30;20485;-85
2021/05/22 03:26:36;;;;;;;0.82;0.55;;;6.30;99.90;;;;;;4682626;30;20053;-84
2021/05/22 03:29:04;;;;;;;1.05;0.95;;;6.20;99.90;;;;;;4695946;30;20074;-83
2021/05/22 03:31:32;;;;;;;0.50;0.50;;;6.20;99.90;;;;;;4695840;30;20428;-83
2021/05/22 03:34:05;;;;;;;0.60;0.60;;;6.30;99.90;;;;;;4696397;30;20062;-84
2021/05/22 03:36:33;;;;;;;0.50;0.50;;;6.30;99.90;;;;;;4707119;30;20060;-83
2021/05/22 03:39:18;;;;;;;0.50;0.50;;;6.40;99.90;;;;;;4713520;30;20437;-84
2021/05/22 03:41:52;;;;;;;0.75;0.73;;;6.20;99.90;;;;;;4740819;30;20057;-84
2021/05/22 03:44:30;;;;;;;0.75;0.60;;;6.30;99.90;;;;;;4721185;30;20491;-84
2021/05/22 03:47:49;;;;;;;0.50;0.50;;;6.30;99.90;;;;;;4712046;30;20068;-84
2021/05/22 03:51:31;;;;;;;0.70;0.57;;;6.40;99.90;;;;;;4712133;30;20171;-84
2021/05/22 03:57:55;;;;;;;0.57;0.57;;;6.50;99.90;;;;;;4651078;30;20054;-84
2021/05/22 04:02:02;;;;;;;0.50;0.50;;;6.50;99.90;;;;;;4638253;30;20051;-83
2021/05/22 04:05:03;;;;;;;0.60;0.60;;;6.50;99.90;;;;;;4691381;30;20543;-84
2021/05/22 04:08:11;;;;;;;3.38;1.15;;;6.50;99.90;;;;;;4678264;30;20355;-84
2021/05/22 04:11:28;;;;;;;0.50;0.50;;;6.60;99.90;;;;;;4637737;30;20061;-83
2021/05/22 04:14:05;;;;;;;0.50;0.50;;;6.50;99.90;;;;;;4654388;30;20057;-84
2021/05/22 04:16:37;;;;;;;4.57;1.08;;;6.60;99.90;;;;;;4676155;30;20493;-84
2021/05/22 04:19:19;;;;;;;0.50;0.50;;;6.70;99.90;;;;;;4648822;30;20066;-84
2021/05/22 04:21:53;;;;;;;0.57;0.57;;;6.60;99.90;;;;;;4660618;30;20061;-84
2021/05/22 04:24:32;;;;;;;0.50;0.50;;;6.70;99.90;;;;;;4646589;30;20066;-83
2021/05/22 04:27:03;;;;;;;0.55;0.55;;;6.70;99.90;;;;;;4663076;30;20079;-84
2021/05/22 04:29:35;;;;;;;0.52;0.52;;;6.70;99.90;;;;;;4687589;30;20057;-84
2021/05/22 04:32:15;;;;;;;0.50;0.50;;;6.70;99.90;;;;;;4695642;30;20065;-83
2021/05/22 04:34:45;;;;;;;0.50;0.50;;;6.80;99.90;;;;;;4681410;30;20069;-84
2021/05/22 04:37:21;;;;;;;1.15;1.05;;;6.70;99.90;;;;;;4679216;30;20074;-84
2021/05/22 04:40:13;;;;;;;0.82;0.57;;;6.80;99.90;;;;;;4654195;30;20515;-84
2021/05/22 04:42:43;;;;;;;1.52;1.42;;;6.80;99.90;;;;;;4709858;30;20061;-85
2021/05/22 04:45:12;;;;;;;1.48;1.40;;;6.80;99.90;;;;;;4695015;30;20056;-84
2021/05/22 04:47:43;;;;;;;0.70;0.70;;;6.70;99.90;;;;;;4698397;30;20386;-84
2021/05/22 04:50:12;;;;;;;0.75;0.75;;;6.70;99.90;;;;;;4704161;30;20071;-85
2021/05/22 04:52:48;;;;;;;0.73;0.73;;;6.70;99.90;;;;;;4696330;30;20053;-83
2021/05/22 04:55:20;;;;;;;0.75;0.75;;;6.80;99.90;;;;;;4698827;30;20060;-84
2021/05/22 04:57:48;;;;;;;1.05;1.05;;;6.80;99.90;;;;;;4698065;30;20060;-84
2021/05/22 05:00:19;;;;;;;2.83;1.20;;;6.90;99.90;;;;;;4711838;30;20504;-84
2021/05/22 05:02:51;;;;;;;0.70;0.70;;;6.90;99.90;;;;;;4712363;30;20079;-84
2021/05/22 05:05:23;;;;;;;0.60;0.60;;;7.00;99.90;;;;;;4683802;30;20056;-85
2021/05/22 05:07:52;;;;;;;1.88;1.77;;;7.00;99.90;;;;;;4710352;30;20475;-85
2021/05/22 05:10:20;;;;;;;1.48;0.80;;;7.10;99.90;;;;;;4711751;30;20076;-85
2021/05/22 05:12:48;;;;;;;1.15;1.13;;;7.10;99.90;;;;;;4697891;30;20390;-84
2021/05/22 05:15:16;;;;;;;0.70;0.70;;;7.10;99.90;;;;;;4698427;30;20056;-84
2021/05/22 05:17:44;;;;;;;1.48;1.38;;;7.10;99.90;;;;;;4683066;30;20542;-84
2021/05/22 05:20:12;;;;;;;0.73;0.73;;;7.00;99.90;;;;;;4711695;30;20072;-84
2021/05/22 05:22:40;;;;;;;1.35;0.85;;;7.10;99.90;;;;;;4682680;30;20061;-83
2021/05/22 05:25:14;;;;;;;0.70;0.70;;;7.10;99.90;;;;;;4683436;30;20080;-84
2021/05/22 05:27:45;;;;;;;0.90;0.90;;;7.00;99.90;;;;;;4698081;30;20065;-83
2021/05/22 05:30:14;;;;;;;0.82;0.82;;;7.10;99.90;;;;;;4708249;30;20038;-84
2021/05/22 05:32:47;;;;;;;3.78;1.13;;;7.10;99.90;;;;;;4680274;30;20076;-84
2021/05/22 05:35:15;;;;;;;0.75;0.75;;;7.10;99.90;;;;;;4697791;30;20057;-84
2021/05/22 05:37:43;;;;;;;0.73;0.73;;;7.20;99.90;;;;;;4727194;30;20065;-83
2021/05/22 05:40:12;;;;;;;0.98;0.98;;;7.30;99.90;;;;;;4729726;30;20480;-84
2021/05/22 05:42:40;;;;;;;1.02;1.00;;;7.30;99.90;;;;;;4729416;30;20520;-84
2021/05/22 05:45:08;;;;;;;0.70;0.70;;;7.30;99.90;;;;;;4744157;30;20389;-84
2021/05/22 05:47:36;;;;;;;0.98;0.93;;;7.50;99.90;;;;;;4744285;30;20057;-84
2021/05/22 05:50:05;;;;;;;0.95;0.95;;;7.50;99.90;;;;;;4714647;30;20061;-84
2021/05/22 05:52:36;;;;;;;;;;;7.60;99.90;;;;;;4686117;30;20060;-84
2021/05/22 05:55:05;;;;;;;0.60;0.60;;;7.60;99.90;;;;;;4686578;30;19930;-84
2021/05/22 05:57:33;;;;;;;2.17;1.00;;;7.70;99.90;;;;;;4715075;30;20057;-85
2021/05/22 06:00:05;;;;;;;2.22;1.23;;;7.70;99.90;;;;;;4743481;30;20602;-85
2021/05/22 06:02:33;;;;;;;0.77;0.77;;;7.70;99.90;;;;;;4715013;30;20087;-85
2021/05/22 06:05:01;;;;;;;1.38;1.27;;;7.70;99.90;;;;;;4686072;30;20060;-84
2021/05/22 06:07:30;;;;;;;0.80;0.80;;;7.80;99.90;;;;;;4715403;30;20505;-85
2021/05/22 06:10:05;;;;;;;1.20;1.13;;;7.80;99.90;;;;;;4698973;30;20057;-85
2021/05/22 06:12:51;;;;;;;1.15;1.08;;;7.80;99.90;;;;;;4683147;30;20058;-84
2021/05/22 06:15:33;;;;;;;0.98;0.98;;;7.70;99.90;;;;;;4670285;30;20061;-85
2021/05/22 06:18:08;;;;;;;0.77;0.70;;;7.70;99.90;;;;;;4668073;30;20050;-83
2021/05/22 06:20:41;;;;;;;0.70;0.70;;;7.70;99.90;;;;;;4682326;30;20067;-84
2021/05/22 06:23:15;;;;;;;2.95;0.80;;;7.70;99.90;;;;;;4668081;30;20428;-84
2021/05/22 06:25:46;;;;;;;0.90;0.90;;;7.70;99.90;;;;;;4682677;30;20544;-85
2021/05/22 06:28:44;;;;;;;0.80;0.80;;;7.80;99.90;;;;;;4688363;30;20053;-85
2021/05/22 06:31:28;;;;;;;1.08;0.98;;;7.80;99.90;;;;;;4697765;30;20069;-85
2021/05/22 06:34:34;;;;;;;2.20;1.33;;;7.90;99.90;;;;;;4668761;30;20083;-85
2021/05/22 06:37:02;;;;;;;0.73;0.73;;;7.90;99.90;;;;;;4699498;30;20060;-85
2021/05/22 06:39:54;;;;;;;0.85;0.80;;;7.90;99.90;;;;;;4729461;30;20065;-84
2021/05/22 06:42:33;;;;;;;5.45;0.77;;;8.00;99.90;;;;;;4728384;30;20061;-85
2021/05/22 06:49:23;;;;;;;0.98;0.80;;;8.20;99.90;;;;;;4638441;30;20046;-84
2021/05/22 06:51:53;;;;;;;22.90;1.13;;;8.30;99.90;;;;;;4627170;30;20062;-82
2021/05/22 06:54:21;;;;;;;0.60;0.60;;;8.30;99.90;;;;;;4654769;30;20066;-79
2021/05/22 06:56:49;;;;;;;0.98;0.60;;;8.30;99.90;;;;;;4681424;30;20049;-78
2021/05/22 06:59:17;;;;;;;1.80;0.70;;;8.30;99.90;;;;;;4696372;30;20072;-78
2021/05/22 07:01:45;;;;;;;2.75;2.55;;;8.50;99.90;;;;;;4696072;30;20061;-78
2021/05/22 07:04:13;;;;;;;1.70;1.60;;;8.80;99.90;;;;;;4696465;30;20092;-79
2021/05/22 07:06:41;;;;;;;0.45;0.45;;;9.10;99.90;;;;;;4697182;30;20068;-79
2021/05/22 07:09:08;;;;;;;2.05;1.00;;;9.20;99.90;;;;;;4696198;30;20045;-78
2021/05/22 07:11:36;;;;;;;1.10;1.10;;;9.50;99.90;;;;;;4697254;30;20267;-79
2021/05/22 07:14:04;;;;;;;1.17;1.00;;;10.00;99.90;;;;;;4670499;30;20046;-78
2021/05/22 07:16:55;;;;;;;1.15;0.82;;;10.90;99.90;;;;;;4707020;30;20049;-78
2021/05/22 07:19:22;;;;;;;1.15;1.08;;;11.20;99.90;;;;;;4712523;30;20065;-78
2021/05/22 07:21:51;;;;;;;1.05;0.70;;;11.50;99.90;;;;;;4713272;30;20049;-77
2021/05/22 07:24:20;;;;;;;1.55;0.68;;;11.70;99.90;;;;;;4716494;30;20060;-79
2021/05/22 07:26:50;;;;;;;4.93;0.80;;;11.60;99.90;;;;;;4732807;30;20145;-79
2021/05/22 07:29:19;;;;;;;1.80;0.65;;;11.40;99.90;;;;;;4716574;30;20048;-79
2021/05/22 07:31:47;;;;;;;4.18;1.05;;;11.10;99.90;;;;;;4716265;30;20065;-77
2021/05/22 07:34:14;;;;;;;0.90;0.40;;;11.30;99.90;;;;;;4714617;30;20080;-78
2021/05/22 07:36:43;;;;;;;1.85;1.25;;;11.00;99.90;;;;;;4726713;30;20522;-78
2021/05/22 07:39:13;;;;;;;5.78;0.68;;;10.80;99.90;;;;;;4715199;30;20068;-77
2021/05/22 07:41:46;;;;;;;1.35;1.25;;;10.60;99.90;;;;;;4731438;30;20076;-78
2021/05/22 07:44:14;;;;;;;0.73;0.73;;;10.40;99.90;;;;;;4702262;30;20111;-77
2021/05/22 07:46:42;;;;;;;1.55;0.95;;;10.60;99.90;;;;;;4732099;30;20060;-77
2021/05/22 07:49:11;;;;;;;3.65;0.90;;;11.00;99.90;;;;;;4715809;30;20056;-78
2021/05/22 07:51:43;;;;;;;2.97;1.35;;;11.50;99.90;;;;;;4716220;30;20492;-76
2021/05/22 07:54:11;;;;;;;1.02;0.98;;;12.50;99.90;;;;;;4729959;30;20045;-76
2021/05/22 07:56:39;;;;;;;0.70;0.70;;;13.40;98.40;;;;;;4731932;30;20053;-77
2021/05/22 07:59:06;;;;;;;2.03;0.90;;;14.30;97.50;;;;;;4731746;30;20091;-77
2021/05/22 08:01:35;;;;;;;4.47;1.00;;;14.40;95.00;;;;;;4731014;30;20057;-76
2021/05/22 08:04:07;;;;;;;0.65;0.60;;;14.50;95.50;;;;;;4731582;30;20056;-85
2021/05/22 08:06:35;;;;;;;1.65;1.52;;;14.10;97.00;;;;;;4728919;30;20064;-84
2021/05/22 08:09:04;;;;;;;3.83;1.70;;;14.20;97.40;;;;;;4721978;30;20045;-83
2021/05/22 08:11:53;;;;;;;2.40;1.08;;;14.60;93.10;;;;;;4684379;30;20404;-85
2021/05/22 08:14:35;;;;;;;3.55;0.70;;;14.90;97.50;;;;;;4697869;30;20041;-83
2021/05/22 08:17:03;;;;;;;1.10;0.75;;;14.50;94.40;;;;;;4701028;30;20092;-81
2021/05/22 08:19:31;;;;;;;5.03;0.75;;;13.90;98.70;;;;;;4714238;30;20057;-82
2021/05/22 08:21:59;;;;;;;10.40;1.27;;;14.60;95.70;;;;;;4713230;30;20049;-82
2021/05/22 08:24:27;;;;;;;6.50;0.55;;;14.10;97.50;;;;;;4712392;30;20053;-83
2021/05/22 08:27:22;;;;;;;1.55;0.75;;;15.50;93.10;;;;;;4713568;30;20060;-80
2021/05/22 08:29:55;;;;;;;1.58;0.90;;;16.00;91.90;;;;;;4697435;30;20056;-83
2021/05/22 08:33:30;;;;;;;0.80;0.57;;;15.20;93.40;;;;;;4714782;30;20044;-83
2021/05/22 08:36:25;;;;;;;4.65;0.90;;;13.40;98.70;;;;;;4691513;29;20507;-83
2021/05/22 08:39:01;;;;;;;1.13;0.68;;;12.80;98.50;;;;;;4715349;30;20052;-82
2021/05/22 08:41:34;;;;;;;2.60;1.15;;;12.60;98.50;;;;;;4683886;30;20050;-82
2021/05/22 08:44:52;;;;;;;0.50;0.50;;;12.60;99.50;;;;;;4678974;30;20069;-84
2021/05/22 08:47:48;;;;;;;2.72;0.70;;;12.20;97.90;;;;;;4653422;30;20072;-86
2021/05/22 08:50:17;;;;;;;1.27;0.57;;;12.40;99.90;;;;;;4662000;30;20064;-86
2021/05/22 08:52:46;;;;;;;1.35;0.93;;;12.30;97.80;;;;;;4649187;30;20406;-85
2021/05/22 08:55:14;;;;;;;2.42;0.77;;;12.40;96.70;;;;;;4665853;30;20064;-89
2021/05/22 08:57:42;;;;;;;3.75;1.17;;;12.30;96.20;;;;;;4651344;30;20425;-87
2021/05/22 09:00:27;;;;;;;4.05;0.85;;;12.00;97.60;;;;;;4656317;30;20166;-86
2021/05/22 09:03:23;;;;;;;3.60;1.38;;;11.80;96.20;;;;;;4678932;30;20057;-85
2021/05/22 09:07:48;;;;;;;1.58;0.60;;;12.10;96.90;;;;;;4686597;30;20061;-84
2021/05/22 09:10:55;;;;;;;1.95;1.33;;;12.70;98.60;;;;;;4666915;30;20050;-85
2021/05/22 09:13:51;;;;;;;3.13;0.77;;;12.70;98.00;;;;;;4679109;30;20069;-86
2021/05/22 09:16:58;;;;;;;4.22;0.88;;;12.40;96.40;;;;;;4656430;30;20527;-86
2021/05/22 09:20:10;;;;;;;1.23;1.13;;;12.40;96.00;;;;;;4655811;30;20068;-88
2021/05/22 09:22:59;;;;;;;1.02;0.70;;;12.50;95.60;;;;;;4673626;30;20497;-88
2021/05/22 09:25:40;;;;;;;4.00;0.90;;;12.50;94.40;;;;;;4653763;30;20133;-87
2021/05/22 09:28:10;;;;;;;1.08;1.05;;;12.80;94.20;;;;;;4668240;30;20065;-87
2021/05/22 09:30:48;;;;;;;3.85;0.90;;;12.90;93.40;;;;;;4665724;30;20067;-86
2021/05/22 09:33:30;;;;;;;3.80;2.53;;;13.00;93.80;;;;;;4674999;30;20058;-86
2021/05/22 09:36:03;;;;;;;0.65;0.65;;;13.50;97.90;;;;;;4676071;30;20093;-86
2021/05/22 09:38:45;;;;;;;0.88;0.60;;;14.30;99.10;;;;;;4660240;30;20382;-85
2021/05/22 09:41:20;;;;;;;4.07;1.00;;;14.50;90.80;;;;;;4677474;30;20256;-84
2021/05/22 09:44:09;;;;;;;1.08;0.80;;;14.20;91.90;;;;;;4647845;30;20073;-85
2021/05/22 09:46:48;;;;;;;15.73;1.13;;;13.80;92.40;;;;;;4661207;30;20050;-90
2021/05/22 09:49:28;;;;;;;;;;;13.50;92.90;;;;;;4653476;30;20429;-83
2021/05/22 09:52:12;;;;;;;3.20;0.80;;;13.20;90.70;;;;;;4695256;30;19934;-85
2021/05/22 09:54:40;;;;;;;6.22;1.23;;;13.40;94.30;;;;;;4662845;30;20065;-85
2021/05/22 09:57:15;;;;;;;2.70;0.85;;;13.80;91.10;;;;;;4693985;30;20496;-85
2021/05/22 10:00:12;;;;;;;0.50;0.50;;;14.10;92.40;;;;;;4694626;30;20064;-86
2021/05/22 10:02:48;;;;;;;1.08;0.70;;;14.40;92.90;;;;;;4706755;30;20053;-86
2021/05/22 10:05:22;;;;;;;1.15;1.05;;;14.40;92.70;;;;;;4696187;30;20050;-85
2021/05/22 10:07:51;;;;;;;;;;;14.20;92.70;;;;;;4679141;30;20493;-85
2021/05/22 10:10:46;;;;;;;2.63;0.77;;;14.20;91.40;;;;;;4678886;30;19936;-86
2021/05/22 10:14:17;;;;;;;3.17;1.30;;;14.00;90.50;;;;;;4676317;30;20592;-86
2021/05/22 10:16:45;;;;;;;6.30;0.82;;;13.70;91.10;;;;;;4668772;30;20050;-81
2021/05/22 10:19:13;;;;;;;0.95;0.93;;;13.40;92.60;;;;;;4695187;30;20057;-79
2021/05/22 10:21:40;;;;;;;5.43;0.90;;;13.30;91.20;;;;;;4681098;30;20062;-79
2021/05/22 10:24:10;;;;;;;2.45;0.70;;;13.40;91.40;;;;;;4667445;30;20057;-81
2021/05/22 10:26:41;;;;;;;0.95;0.95;;;13.60;92.30;;;;;;4698514;30;20058;-80
2021/05/22 10:29:23;;;;;;;3.58;1.02;;;14.00;90.70;;;;;;4698682;30;20053;-88
2021/05/22 10:49:04;;;;;;;7.00;1.02;;;14.50;94.40;;;;;;4844722;24;20298;-88
2021/05/22 10:51:36;;;;;;;1.50;1.17;;;14.00;87.80;;;;;;4737379;30;20063;-89
2021/05/22 10:58:57;;;;;;;1.58;1.00;;;14.30;92.30;;;;;;4728672;30;20218;-87
2021/05/22 11:01:47;;;;;;;0.90;0.90;;;14.50;87.20;;;;;;4700389;30;20052;-86
2021/05/22 11:04:41;;;;;;;11.27;1.70;;;14.40;91.20;;;;;;4714500;30;20076;-89
2021/05/22 11:08:32;;;;;;;4.85;0.50;;;14.60;88.50;;;;;;4736703;30;20422;-87
2021/05/22 11:15:46;;;;;;;3.28;0.60;;;14.80;86.80;;;;;;4750861;30;20390;-88
2021/05/22 11:19:11;;;;;;;1.13;0.63;;;15.60;89.00;;;;;;4724513;30;20058;-85
2021/05/22 11:25:59;;;;;;;2.50;0.55;;;14.90;89.00;;;;;;4729906;30;20538;-87
2021/05/22 11:29:03;;;;;;;1.70;0.60;;;14.30;84.20;;;;;;4735997;30;20497;-89
2021/05/22 11:31:49;;;;;;;0.50;0.50;;;14.50;86.60;;;;;;4731531;30;20067;-87
2021/05/22 11:34:47;;;;;;;0.68;0.60;;;15.00;90.50;;;;;;4724529;30;20431;-87
2021/05/22 11:37:35;;;;;;;0.65;0.65;;;15.10;88.10;;;;;;4732817;30;20083;-85
2021/05/22 11:40:07;;;;;;;4.63;0.65;;;14.70;84.40;;;;;;4732199;30;20104;-87
2021/05/22 11:42:43;;;;;;;6.65;1.30;;;14.80;86.50;;;;;;4718089;30;20439;-88
2021/05/22 11:45:49;;;;;;;0.77;0.77;;;15.20;90.20;;;;;;4721102;30;20051;-86
2021/05/22 11:48:40;;;;;;;3.10;0.70;;;15.20;83.70;;;;;;4718103;30;20068;-87
2021/05/22 11:51:55;;;;;;;0.55;0.55;;;15.00;89.10;;;;;;4719080;30;20063;-89
2021/05/22 11:58:52;;;;;;;3.20;0.60;;;14.60;83.20;;;;;;4709140;30;20048;-88
2021/05/22 12:05:44;;;;;;;0.65;0.65;;;15.60;84.20;;;;;;4751261;30;20064;-88
2021/05/22 12:12:13;;;;;;;0.73;0.73;;;15.60;91.50;;;;;;4739054;24;20380;31
2021/05/22 12:14:49;;;;;;;0.82;0.82;;;15.20;83.30;;;;;;4691259;30;20057;-86
2021/05/22 12:17:54;;;;;;;3.15;1.00;;;14.90;84.20;;;;;;4672670;30;20052;-86
2021/05/22 12:20:24;;;;;;;1.65;0.75;;;14.90;85.80;;;;;;4665794;30;20080;-81
2021/05/22 12:22:51;;;;;;;1.45;0.40;;;14.70;87.10;;;;;;4679940;30;20060;-82
2021/05/22 12:25:20;;;;;;;1.67;0.52;;;14.90;90.90;;;;;;4681391;30;20449;-82
2021/05/22 12:27:48;;;;;;;0.55;0.40;;;15.30;89.40;;;;;;4681138;30;20061;-84
2021/05/22 12:30:17;;;;;;;0.73;0.63;;;15.10;81.80;;;;;;4695544;30;20497;-81
2021/05/22 12:32:48;;;;;;;0.50;0.50;;;15.10;89.80;;;;;;4680899;30;20057;-84
2021/05/22 12:35:16;;;;;;;1.13;0.75;;;15.40;83.70;;;;;;4681430;30;20061;-82
2021/05/22 12:37:51;;;;;;;0.73;0.55;;;15.30;83.60;;;;;;4679417;30;20057;-82
2021/05/22 12:40:18;;;;;;;1.85;0.60;;;15.20;82.40;;;;;;4680257;30;20405;-84
2021/05/22 12:42:52;;;;;;;0.68;0.68;;;15.50;83.20;;;;;;4681338;30;20065;-85
2021/05/22 12:45:22;;;;;;;0.68;0.68;;;15.70;81.70;;;;;;4680268;30;20049;-82
2021/05/22 12:47:51;;;;;;;0.90;0.80;;;15.80;77.90;;;;;;4680476;30;20061;-82
2021/05/22 12:50:28;;;;;;;0.50;0.50;;;15.50;78.70;;;;;;4696208;30;20045;-82
2021/05/22 12:53:04;;;;;;;2.00;0.68;;;15.30;76.80;;;;;;4694360;30;20065;-77
2021/05/22 12:55:35;;;;;;;3.53;1.15;;;15.20;80.80;;;;;;4681492;30;20092;-79
2021/05/22 12:58:18;;;;;;;1.48;0.60;;;15.30;82.50;;;;;;4695240;30;20062;-77
2021/05/22 13:00:50;;;;;;;1.55;0.65;;;15.50;80.10;;;;;;4695637;30;20092;-77
2021/05/22 13:03:35;;;;;;;1.50;0.82;;;15.30;75.00;;;;;;4681280;30;20065;-76
2021/05/22 13:06:03;;;;;;;1.10;0.60;;;15.70;78.40;;;;;;4680536;30;20057;-79
2021/05/22 13:08:31;;;;;;;1.45;0.85;;;15.90;82.80;;;;;;4694408;30;20061;-78
2021/05/22 13:11:13;;;;;;;0.65;0.65;;;16.00;73.80;;;;;;4696140;30;20068;-80
2021/05/22 13:13:41;;;;;;;2.08;1.42;;;16.30;81.70;;;;;;4696106;30;20058;-78
2021/05/22 13:16:14;;;;;;;2.15;0.98;;;16.50;75.50;;;;;;4696777;30;20057;-79
2021/05/22 13:18:42;;;;;;;0.57;0.57;;;16.40;76.00;;;;;;4696199;30;20067;-78
2021/05/22 13:21:12;;;;;;;0.80;0.50;;;16.50;67.60;;;;;;4695508;30;20046;-78
2021/05/22 13:23:51;;;;;;;0.50;0.50;;;16.50;67.80;;;;;;4695061;30;20417;-79
2021/05/22 13:26:25;;;;;;;3.88;0.77;;;16.40;74.20;;;;;;4680672;30;20053;-78
2021/05/22 13:28:58;;;;;;;0.50;0.50;;;16.80;84.00;;;;;;4696106;30;20037;-79
2021/05/22 13:31:31;;;;;;;0.80;0.57;;;16.70;75.50;;;;;;4680349;30;20511;-78
2021/05/22 13:34:11;;;;;;;1.95;0.70;;;16.60;73.60;;;;;;4695858;30;20069;-78
2021/05/22 13:36:40;;;;;;;3.43;1.00;;;16.50;71.40;;;;;;4680605;30;20064;-78
2021/05/22 13:39:13;;;;;;;1.75;0.98;;;16.60;76.20;;;;;;4679548;30;20054;-79
2021/05/22 13:41:44;;;;;;;0.60;0.45;;;16.80;74.30;;;;;;4679997;30;20065;-78
2021/05/22 13:44:13;;;;;;;0.98;0.93;;;16.30;81.00;;;;;;4695808;30;20432;-77
2021/05/22 13:46:44;;;;;;;1.35;0.52;;;16.30;69.80;;;;;;4696524;30;20513;-78
2021/05/22 13:49:12;;;;;;;0.57;0.57;;;16.50;70.40;;;;;;4696007;30;20057;-79
2021/05/22 13:51:40;;;;;;;0.70;0.60;;;16.30;71.90;;;;;;4695776;30;20444;-78
2021/05/22 13:54:08;;;;;;;0.95;0.60;;;16.30;74.00;;;;;;4694319;30;20045;-81
2021/05/22 13:56:36;;;;;;;2.55;0.68;;;16.30;73.80;;;;;;4697491;30;20050;-77
2021/05/22 13:59:04;;;;;;;1.67;0.40;;;16.50;70.70;;;;;;4700102;30;20493;-78
2021/05/22 14:01:32;;;;;;;0.50;0.50;;;16.40;67.10;;;;;;4698972;30;20050;-78
2021/05/22 14:04:00;;;;;;;3.45;0.70;;;16.30;72.80;;;;;;4699369;30;20065;-78
2021/05/22 14:06:28;;;;;;;0.63;0.63;;;16.70;77.20;;;;;;4699119;30;20054;-78
2021/05/22 14:08:56;;;;;;;2.72;0.63;;;17.00;68.00;;;;;;4690629;30;20413;-78
2021/05/22 14:11:25;;;;;;;1.50;0.70;;;16.70;72.10;;;;;;4681506;30;20065;-78
2021/05/22 14:13:53;;;;;;;0.50;0.50;;;16.70;74.70;;;;;;4681621;30;20540;-81
2021/05/22 14:16:21;;;;;;;0.55;0.55;;;16.90;67.20;;;;;;4682064;30;20058;-77
2021/05/22 14:18:49;;;;;;;0.85;0.55;;;16.80;70.40;;;;;;4682097;30;20152;-79
2021/05/22 14:21:17;;;;;;;0.90;0.70;;;16.70;70.50;;;;;;4680167;30;20073;-78
2021/05/22 14:23:45;;;;;;;1.02;0.70;;;16.70;66.70;;;;;;4680147;30;20073;-78
2021/05/22 14:26:13;;;;;;;5.93;1.77;;;16.60;68.00;;;;;;4681464;30;20072;-78
2021/05/22 14:28:44;;;;;;;0.65;0.65;;;16.60;67.30;;;;;;4681673;30;20050;-79
2021/05/22 14:31:12;;;;;;;;;;;16.80;67.90;;;;;;4681265;30;20069;-77
2021/05/22 14:33:40;;;;;;;0.50;0.50;;;16.70;62.30;;;;;;4681171;30;19931;-78
2021/05/22 14:36:09;;;;;;;0.57;0.43;;;16.60;64.60;;;;;;4688965;30;20069;-79
2021/05/22 14:38:37;;;;;;;0.82;0.50;;;16.60;65.50;;;;;;4697799;30;20069;-80
2021/05/22 14:41:05;;;;;;;3.00;1.35;;;16.90;68.90;;;;;;4697934;30;20057;-78
2021/05/22 14:43:34;;;;;;;4.97;1.60;;;16.90;67.50;;;;;;4698945;30;20054;-78
2021/05/22 14:46:03;;;;;;;1.52;1.42;;;17.00;68.80;;;;;;4696331;30;20505;-78
2021/05/22 14:48:31;;;;;;;0.85;0.70;;;17.00;66.00;;;;;;4680929;30;20053;-78
2021/05/22 14:50:59;;;;;;;0.52;0.52;;;16.70;64.90;;;;;;4680984;30;20058;-77
2021/05/22 14:53:27;;;;;;;3.33;1.50;;;16.70;66.70;;;;;;4678764;30;20072;-78
2021/05/22 14:55:55;;;;;;;1.83;0.73;;;16.70;68.20;;;;;;4681510;30;20069;-78